Terminal Aerodrome Forecast
Issued by NWS

Home | Current Version | Previous Version | Graphics & Text | Print | Product List | Glossary On
Versions: 1 2 3 4 5 6 7 8 9 10 11 12 13 14 15 16 17
000
FTUS43 KABR 211317 AAA
TAFPIR
TAF AMD
KPIR 211317Z 2113/2212 32022G32KT P6SM VCSH BKN090
     FM212000 30020G30KT P6SM BKN090
     FM220000 29012KT P6SM FEW200
     FM220400 27008KT P6SM FEW250=

USA.gov is the U.S. government's official web portal to all federal, state and local government web resources and services.